Time;durP1;ratioP1;P1;durP2;ratioP2;P2;SDS_P1;SDS_P2;PMS_P1;PMS_P2;Temp;Humidity;BMP_temperature;BMP_pressure;BME280_temperature;BME280_humidity;BME280_pressure;Samples;Min_cycle;Max_cycle;Signal;HPM_P1;HPM_P2
2023/06/24 00:00:09;;;;;;;6.53;6.03;;;27.30;63.50;;;;;;4942887;28;20421;-82
2023/06/24 00:02:37;;;;;;;7.00;6.40;;;27.30;63.60;;;;;;4975694;28;20478;-81
2023/06/24 00:05:04;;;;;;;6.53;6.00;;;27.30;63.60;;;;;;4976362;28;20773;-82
2023/06/24 00:07:30;;;;;;;6.47;5.97;;;27.30;63.50;;;;;;4965134;28;20467;-82
2023/06/24 00:09:56;;;;;;;6.77;6.17;;;27.30;63.60;;;;;;4981319;28;20419;-82
2023/06/24 00:12:22;;;;;;;6.67;6.07;;;27.20;63.50;;;;;;4984699;28;20778;-81
2023/06/24 00:14:49;;;;;;;6.67;6.07;;;27.20;63.50;;;;;;4995013;28;20190;-81
2023/06/24 00:17:16;;;;;;;6.87;6.37;;;27.20;63.50;;;;;;4992203;28;20503;-82
2023/06/24 00:19:45;;;;;;;7.03;6.53;;;27.20;63.60;;;;;;4997901;28;20416;-82
2023/06/24 00:22:10;;;;;;;6.80;6.30;;;27.20;63.50;;;;;;4981128;28;20779;-82
2023/06/24 00:24:36;;;;;;;6.80;6.30;;;27.20;63.50;;;;;;5014474;28;20490;-82
2023/06/24 00:27:09;;;;;;;6.90;6.30;;;27.10;63.50;;;;;;4965232;28;20524;-82
2023/06/24 00:29:37;;;;;;;8.17;6.63;;;27.20;63.60;;;;;;4960140;28;20528;-82
2023/06/24 00:32:07;;;;;;;7.37;6.67;;;27.10;63.50;;;;;;4980851;28;20822;-82
2023/06/24 00:34:37;;;;;;;7.80;7.20;;;27.10;63.60;;;;;;4997859;28;20401;-82
2023/06/24 00:37:05;;;;;;;7.00;6.40;;;27.10;63.50;;;;;;4997575;28;20467;-82
2023/06/24 00:39:31;;;;;;;6.73;6.13;;;27.10;63.60;;;;;;4965244;28;20439;-82
2023/06/24 00:41:57;;;;;;;7.43;6.70;;;27.00;63.50;;;;;;4980210;28;20830;-83
2023/06/24 00:44:26;;;;;;;7.50;6.80;;;27.00;63.50;;;;;;4984911;28;20961;-82
2023/06/24 00:46:52;;;;;;;6.77;6.07;;;27.00;63.40;;;;;;4994675;28;20465;-82
2023/06/24 00:49:20;;;;;;;7.17;6.57;;;27.00;63.50;;;;;;4945950;28;20190;-82
2023/06/24 00:51:52;;;;;;;7.27;6.40;;;27.00;63.50;;;;;;4967865;28;20747;-82
2023/06/24 00:54:18;;;;;;;6.77;6.27;;;27.00;63.50;;;;;;5013972;28;20452;-82
2023/06/24 00:56:44;;;;;;;6.53;6.03;;;26.90;63.40;;;;;;4967815;28;20449;-82
2023/06/24 00:59:15;;;;;;;7.83;7.07;;;26.90;63.40;;;;;;4942737;28;20458;-82
2023/06/24 01:01:45;;;;;;;6.57;6.00;;;26.90;63.40;;;;;;4961844;28;20418;-82
2023/06/24 01:04:11;;;;;;;7.23;6.73;;;26.90;64.30;;;;;;4946126;28;21070;-82
2023/06/24 01:06:43;;;;;;;6.90;6.20;;;26.90;63.50;;;;;;4949959;28;20548;-82
2023/06/24 01:09:14;;;;;;;7.20;6.53;;;26.90;63.50;;;;;;4965175;28;21010;-82
2023/06/24 01:11:44;;;;;;;6.70;6.20;;;26.90;63.60;;;;;;4954878;28;20448;-82
2023/06/24 01:14:10;;;;;;;7.27;6.33;;;26.80;63.50;;;;;;4984177;28;20435;-82
2023/06/24 01:16:55;;;;;;;6.60;6.00;;;26.80;63.50;;;;;;4991591;28;20433;-82
2023/06/24 01:19:40;;;;;;;9.63;6.30;;;26.80;63.50;;;;;;4965041;28;20452;-82
2023/06/24 01:22:11;;;;;;;6.77;6.00;;;26.80;63.50;;;;;;4992018;28;20427;-82
2023/06/24 01:24:44;;;;;;;6.70;6.20;;;26.80;63.50;;;;;;4983907;28;20926;-82
2023/06/24 01:27:45;;;;;;;7.00;6.40;;;26.70;63.40;;;;;;4986702;28;20621;-82
2023/06/24 01:30:27;;;;;;;7.27;6.63;;;26.70;63.40;;;;;;4957084;28;20424;-82
2023/06/24 01:33:03;;;;;;;6.90;6.40;;;26.70;63.40;;;;;;4966898;28;20533;-82
2023/06/24 01:35:36;;;;;;;6.83;6.17;;;26.70;63.40;;;;;;4965615;28;20489;-82
2023/06/24 01:38:22;;;;;;;6.73;6.23;;;26.60;63.40;;;;;;4984127;28;20421;-82
2023/06/24 01:40:50;;;;;;;10.53;6.70;;;26.60;63.40;;;;;;4996989;28;20441;-82
2023/06/24 01:43:17;;;;;;;8.63;6.30;;;26.60;63.40;;;;;;4948759;28;20429;-82
2023/06/24 01:45:50;;;;;;;9.10;6.60;;;26.60;63.40;;;;;;4980472;28;20461;-82
2023/06/24 01:48:23;;;;;;;8.00;6.60;;;26.60;63.40;;;;;;4980472;28;20488;-82
2023/06/24 01:50:54;;;;;;;6.77;6.10;;;26.60;63.40;;;;;;4980431;28;20409;-82
2023/06/24 01:53:22;;;;;;;10.30;6.57;;;26.60;63.40;;;;;;4948591;28;20445;-83
2023/06/24 01:55:51;;;;;;;6.77;6.17;;;26.50;63.40;;;;;;4981868;28;20446;-82
2023/06/24 01:58:22;;;;;;;6.63;6.13;;;26.50;63.40;;;;;;4999408;28;20405;-82
2023/06/24 02:00:48;;;;;;;7.63;6.40;;;26.50;63.50;;;;;;4983286;28;20762;-82
2023/06/24 02:03:15;;;;;;;6.30;5.80;;;26.50;63.50;;;;;;4967545;28;20741;-82
2023/06/24 02:05:42;;;;;;;7.83;5.97;;;26.50;63.50;;;;;;4967385;28;20998;-82
2023/06/24 02:08:13;;;;;;;6.40;5.80;;;26.50;63.60;;;;;;5000141;28;20424;-82
2023/06/24 02:10:41;;;;;;;7.80;7.10;;;26.50;63.60;;;;;;4967367;28;20567;-83
2023/06/24 02:13:11;;;;;;;6.43;5.83;;;26.40;63.50;;;;;;4956401;28;20493;-82
2023/06/24 02:15:41;;;;;;;6.17;5.67;;;26.40;63.50;;;;;;4992685;28;20835;-81
2023/06/24 02:18:09;;;;;;;7.50;5.90;;;26.40;63.50;;;;;;4967091;28;20420;-82
2023/06/24 02:20:38;;;;;;;8.13;6.00;;;26.40;63.50;;;;;;5016351;28;20468;-82
2023/06/24 02:23:08;;;;;;;7.33;6.40;;;26.40;64.40;;;;;;4973991;28;20449;-82
2023/06/24 02:25:43;;;;;;;6.83;6.20;;;26.30;63.50;;;;;;4983302;28;20409;-82
2023/06/24 02:28:10;;;;;;;6.67;6.17;;;26.30;63.50;;;;;;4983013;28;20467;-82
2023/06/24 02:30:37;;;;;;;7.47;6.60;;;26.30;63.50;;;;;;4999104;28;20798;-82
2023/06/24 02:33:03;;;;;;;7.10;6.50;;;26.30;63.50;;;;;;4983072;28;20502;-82
2023/06/24 02:35:29;;;;;;;7.77;6.50;;;26.30;63.60;;;;;;5016202;28;20862;-83
2023/06/24 02:37:55;;;;;;;8.60;6.83;;;26.30;63.60;;;;;;4999219;28;20417;-82
2023/06/24 02:40:25;;;;;;;8.80;5.90;;;26.30;63.60;;;;;;4983063;28;20472;-82
2023/06/24 02:42:53;;;;;;;8.80;6.60;;;26.30;63.60;;;;;;4998137;28;20507;-82
2023/06/24 02:45:19;;;;;;;6.77;6.23;;;26.20;63.60;;;;;;4998529;28;20435;-82
2023/06/24 02:47:49;;;;;;;7.10;6.47;;;26.20;63.60;;;;;;4982649;28;20489;-82
2023/06/24 02:50:18;;;;;;;10.53;6.67;;;26.20;63.60;;;;;;4999419;28;20412;-82
2023/06/24 02:52:45;;;;;;;7.70;6.90;;;26.20;63.60;;;;;;4974225;28;20547;-82
2023/06/24 02:55:15;;;;;;;12.47;6.87;;;26.20;63.60;;;;;;4960048;28;20770;-82
2023/06/24 02:57:50;;;;;;;7.63;6.10;;;26.20;63.70;;;;;;4959929;28;20449;-82
2023/06/24 03:00:35;;;;;;;9.20;7.10;;;26.10;63.70;;;;;;4976819;28;20410;-82
2023/06/24 03:03:22;;;;;;;7.00;6.30;;;26.10;63.80;;;;;;4975121;28;20452;-82
2023/06/24 03:05:54;;;;;;;6.90;6.30;;;26.10;63.80;;;;;;4970971;28;20545;-82
2023/06/24 03:08:21;;;;;;;7.17;6.53;;;26.10;63.80;;;;;;4959771;28;20422;-82
2023/06/24 03:10:59;;;;;;;6.47;5.83;;;26.10;63.80;;;;;;4959902;28;20457;-83
2023/06/24 03:13:31;;;;;;;7.83;7.00;;;26.10;63.80;;;;;;4974374;28;20428;-82
2023/06/24 03:16:05;;;;;;;11.50;6.53;;;26.10;63.80;;;;;;4989028;28;20464;-82
2023/06/24 03:18:42;;;;;;;10.17;6.67;;;26.00;63.70;;;;;;4960803;28;20458;-95
2023/06/24 03:21:09;;;;;;;6.70;6.10;;;26.00;63.80;;;;;;4944945;28;20908;-96
2023/06/24 03:23:36;;;;;;;7.07;5.90;;;26.00;63.80;;;;;;4945303;28;20426;-95
2023/06/24 03:26:03;;;;;;;10.50;6.20;;;26.00;63.90;;;;;;4945157;28;20548;-96
2023/06/24 03:28:32;;;;;;;6.87;6.27;;;26.00;63.90;;;;;;4960513;28;20473;-95
2023/06/24 03:31:08;;;;;;;8.00;6.20;;;26.00;64.40;;;;;;4945051;28;20406;-95
2023/06/24 03:33:34;;;;;;;7.70;6.57;;;25.90;64.20;;;;;;4928790;28;20453;-96
2023/06/24 03:36:00;;;;;;;9.03;5.87;;;25.90;64.30;;;;;;4944756;28;20438;-95
2023/06/24 03:38:29;;;;;;;6.90;6.30;;;25.90;64.20;;;;;;4960491;28;20422;-96
2023/06/24 03:40:57;;;;;;;6.83;5.90;;;25.90;64.40;;;;;;4944741;28;20426;-95
2023/06/24 03:43:23;;;;;;;6.70;6.10;;;25.90;64.30;;;;;;4944393;28;20446;-95
2023/06/24 03:45:49;;;;;;;6.97;6.17;;;25.90;64.50;;;;;;4960016;28;20466;-95
2023/06/24 03:48:15;;;;;;;7.03;5.93;;;25.90;64.30;;;;;;4957238;29;20823;-96
2023/06/24 03:50:41;;;;;;;9.43;6.63;;;25.80;64.30;;;;;;4943394;28;20474;-96
2023/06/24 03:53:07;;;;;;;8.40;6.60;;;25.80;64.30;;;;;;4944471;28;20525;-96
2023/06/24 03:55:34;;;;;;;7.80;6.60;;;25.80;64.20;;;;;;4944879;28;20446;-95
2023/06/24 03:58:00;;;;;;;10.47;6.57;;;25.80;64.30;;;;;;4944875;28;20782;-95
2023/06/24 04:00:26;;;;;;;7.10;6.37;;;25.80;64.40;;;;;;4944492;28;20891;-95
2023/06/24 04:02:53;;;;;;;8.63;6.60;;;25.80;64.40;;;;;;4960552;28;20461;-95
2023/06/24 04:05:22;;;;;;;10.43;6.10;;;25.80;64.40;;;;;;4945662;28;20460;-96
2023/06/24 04:07:52;;;;;;;8.83;6.30;;;25.70;64.40;;;;;;4960485;28;20461;-95
2023/06/24 04:10:18;;;;;;;7.47;5.80;;;25.70;64.30;;;;;;4945189;28;20430;-95
2023/06/24 04:12:45;;;;;;;7.03;6.43;;;25.70;64.60;;;;;;4945346;28;20441;-96
2023/06/24 04:15:11;;;;;;;7.73;7.00;;;25.70;64.20;;;;;;4928911;28;20457;-96
2023/06/24 04:17:38;;;;;;;7.00;6.33;;;25.70;64.60;;;;;;4928626;28;20425;-96
2023/06/24 04:20:08;;;;;;;13.70;6.67;;;25.70;64.70;;;;;;4944910;28;20795;-94
2023/06/24 04:22:36;;;;;;;6.63;6.03;;;25.70;64.50;;;;;;4929007;28;20522;-95
2023/06/24 04:25:02;;;;;;;7.97;6.87;;;25.60;64.40;;;;;;4944741;28;20914;-96
2023/06/24 04:27:29;;;;;;;8.17;5.90;;;25.60;64.60;;;;;;4957778;28;21277;-95
2023/06/24 04:29:55;;;;;;;7.03;6.37;;;25.60;65.00;;;;;;4944962;28;20464;-95
2023/06/24 04:32:21;;;;;;;10.53;6.90;;;25.60;64.90;;;;;;4961468;28;20485;-96
2023/06/24 04:34:47;;;;;;;7.63;6.77;;;25.60;64.90;;;;;;4987063;28;20483;-95
2023/06/24 04:37:13;;;;;;;7.80;7.10;;;25.60;65.00;;;;;;4996653;28;20482;-95
2023/06/24 04:39:39;;;;;;;7.40;5.80;;;25.60;64.80;;;;;;4971759;28;20436;-95
2023/06/24 04:42:05;;;;;;;7.50;6.73;;;25.60;65.20;;;;;;4985866;28;20432;-96
2023/06/24 04:44:34;;;;;;;8.20;7.10;;;25.60;65.10;;;;;;4968199;28;20456;-96
2023/06/24 04:47:00;;;;;;;6.80;6.10;;;25.60;65.10;;;;;;4967557;28;20468;-95
2023/06/24 04:49:26;;;;;;;7.70;7.03;;;25.60;65.00;;;;;;4967435;28;20510;-95
2023/06/24 04:51:52;;;;;;;7.30;6.60;;;25.60;65.40;;;;;;4995024;28;20500;-95
2023/06/24 04:54:18;;;;;;;6.93;6.30;;;25.60;65.10;;;;;;4986864;28;20450;-93
2023/06/24 04:56:45;;;;;;;8.43;7.47;;;25.50;65.00;;;;;;4952996;28;20780;-95
2023/06/24 04:59:11;;;;;;;7.93;6.23;;;25.50;65.10;;;;;;4963767;28;20178;-94
2023/06/24 05:01:37;;;;;;;6.60;6.10;;;25.50;65.10;;;;;;4950765;28;20933;-94
2023/06/24 05:04:03;;;;;;;6.40;5.80;;;25.50;65.30;;;;;;4967750;28;20425;-95
2023/06/24 05:06:29;;;;;;;7.23;6.40;;;25.50;65.30;;;;;;4980176;28;20485;-95
2023/06/24 05:08:55;;;;;;;7.10;6.57;;;25.50;65.60;;;;;;4963479;28;20487;-95
2023/06/24 05:11:21;;;;;;;6.93;6.33;;;25.50;65.40;;;;;;4963420;28;20520;-95
2023/06/24 05:13:47;;;;;;;6.70;6.20;;;25.50;65.60;;;;;;4949350;28;20452;-95
2023/06/24 05:16:16;;;;;;;8.93;6.93;;;25.40;65.70;;;;;;4948234;28;20778;-94
2023/06/24 05:18:44;;;;;;;7.43;6.43;;;25.40;65.20;;;;;;4998556;28;20466;-94
2023/06/24 05:21:10;;;;;;;7.63;7.03;;;25.40;65.20;;;;;;4987923;28;20726;-94
2023/06/24 05:23:36;;;;;;;11.77;6.77;;;25.40;65.50;;;;;;4970815;28;20440;-94
2023/06/24 05:26:28;;;;;;;7.67;6.97;;;25.40;65.70;;;;;;4986971;28;20449;-93
2023/06/24 05:28:54;;;;;;;7.27;6.33;;;25.40;65.20;;;;;;4956280;28;20428;-91
2023/06/24 05:31:20;;;;;;;15.30;10.40;;;25.40;65.50;;;;;;4955995;28;20905;-92
2023/06/24 05:33:46;;;;;;;13.30;8.90;;;25.40;69.00;;;;;;4966791;28;20196;-93
2023/06/24 05:36:12;;;;;;;9.87;8.60;;;25.40;70.00;;;;;;4950043;28;20237;-92
2023/06/24 05:38:38;;;;;;;10.23;8.07;;;25.30;68.80;;;;;;4965978;28;20417;-94
2023/06/24 05:41:04;;;;;;;11.63;8.73;;;25.20;68.20;;;;;;4968294;28;20194;-96
2023/06/24 05:43:30;;;;;;;10.07;7.77;;;25.20;68.80;;;;;;4985990;28;20474;-95
2023/06/24 05:45:56;;;;;;;11.33;8.57;;;25.20;69.00;;;;;;4985083;28;20967;-92
2023/06/24 05:48:22;;;;;;;10.63;7.87;;;25.20;68.40;;;;;;4985797;28;20434;-90
2023/06/24 05:50:48;;;;;;;8.20;7.50;;;25.20;68.30;;;;;;4969180;28;20440;-93
2023/06/24 05:53:14;;;;;;;8.43;7.50;;;25.20;68.70;;;;;;4969700;28;20568;-94
2023/06/24 05:55:40;;;;;;;7.67;6.97;;;25.20;68.30;;;;;;4993397;28;20196;-93
2023/06/24 05:58:06;;;;;;;8.87;8.07;;;25.20;68.20;;;;;;4966729;28;20211;-93
2023/06/24 06:00:32;;;;;;;8.30;7.50;;;25.20;68.00;;;;;;4949828;28;20452;-94
2023/06/24 06:03:00;;;;;;;9.13;8.30;;;25.20;68.40;;;;;;4956755;28;20519;-93
2023/06/24 06:05:26;;;;;;;9.80;7.80;;;25.20;68.60;;;;;;5001828;28;20420;-94
2023/06/24 06:07:57;;;;;;;9.00;7.27;;;25.20;68.00;;;;;;4968770;28;20483;-94
2023/06/24 06:10:23;;;;;;;12.80;8.93;;;25.20;68.00;;;;;;5001967;28;20891;-93
2023/06/24 06:12:50;;;;;;;9.33;7.50;;;25.20;68.00;;;;;;4960892;28;20500;-95
2023/06/24 06:15:16;;;;;;;7.70;6.97;;;25.20;68.10;;;;;;4984975;28;20452;-94
2023/06/24 06:17:42;;;;;;;8.23;7.53;;;25.30;68.10;;;;;;4961430;28;20783;-93
2023/06/24 06:20:08;;;;;;;7.20;6.43;;;25.30;68.40;;;;;;4930252;28;20513;-94
2023/06/24 06:22:37;;;;;;;8.57;7.73;;;25.20;68.30;;;;;;4962664;28;20471;-95
2023/06/24 06:25:12;;;;;;;8.17;7.37;;;25.20;68.70;;;;;;4966577;28;20462;-93
2023/06/24 06:28:12;;;;;;;8.53;7.77;;;25.20;67.10;;;;;;4972464;28;20469;-94
2023/06/24 06:30:38;;;;;;;8.40;7.13;;;25.20;67.80;;;;;;4948020;28;20430;-94
2023/06/24 06:33:04;;;;;;;7.73;7.07;;;25.20;67.70;;;;;;4984828;28;20428;-95
2023/06/24 06:35:30;;;;;;;8.23;7.43;;;25.20;68.30;;;;;;5005685;28;20440;-94
2023/06/24 06:38:00;;;;;;;8.50;7.60;;;25.20;68.30;;;;;;5000816;28;20423;-94
2023/06/24 06:40:28;;;;;;;9.37;8.43;;;25.20;67.90;;;;;;5001483;28;20916;-94
2023/06/24 06:42:54;;;;;;;8.03;7.33;;;25.20;67.70;;;;;;4984895;28;20767;-95
2023/06/24 06:45:20;;;;;;;8.23;7.50;;;25.20;67.60;;;;;;4969803;28;20432;-94
2023/06/24 06:47:46;;;;;;;8.63;7.73;;;25.20;68.00;;;;;;4969483;28;20473;-94
2023/06/24 06:50:12;;;;;;;8.30;7.60;;;25.20;67.80;;;;;;4971809;28;20177;-94
2023/06/24 06:52:38;;;;;;;7.83;7.23;;;25.20;68.40;;;;;;5010167;28;20439;-93
2023/06/24 06:55:05;;;;;;;9.50;7.97;;;25.20;68.00;;;;;;4977618;28;20185;-93
2023/06/24 06:57:31;;;;;;;8.27;7.50;;;25.30;68.10;;;;;;4995621;28;20440;-93
2023/06/24 06:59:57;;;;;;;8.67;7.87;;;25.20;68.10;;;;;;5001809;28;20468;-90
2023/06/24 07:02:23;;;;;;;12.00;8.20;;;25.30;68.50;;;;;;4989795;28;20427;-92
2023/06/24 07:04:50;;;;;;;8.50;7.70;;;25.20;68.20;;;;;;4989880;28;20440;-93
2023/06/24 07:07:17;;;;;;;7.43;6.60;;;25.20;68.00;;;;;;4984277;28;20537;-93
2023/06/24 07:09:43;;;;;;;8.43;7.73;;;25.20;68.00;;;;;;4989299;28;20447;-92
2023/06/24 07:12:10;;;;;;;8.17;7.20;;;25.20;68.00;;;;;;4979445;28;20524;-92
2023/06/24 07:14:36;;;;;;;8.97;8.20;;;25.20;68.90;;;;;;4975936;28;20820;-91
2023/06/24 07:17:02;;;;;;;8.23;7.53;;;25.30;68.30;;;;;;4985432;28;20429;-93
2023/06/24 07:19:54;;;;;;;8.47;7.77;;;25.30;68.20;;;;;;4969309;28;20880;-94
2023/06/24 07:22:20;;;;;;;9.33;7.40;;;25.30;68.00;;;;;;5003258;28;20558;-93
2023/06/24 07:24:45;;;;;;;9.07;8.27;;;25.30;68.70;;;;;;4946290;29;20451;-93
2023/06/24 07:27:11;;;;;;;9.50;7.87;;;25.20;68.50;;;;;;4930158;29;20494;-94
2023/06/24 07:29:37;;;;;;;8.60;7.80;;;25.30;69.10;;;;;;4929003;29;20198;-93
2023/06/24 07:32:04;;;;;;;7.70;7.10;;;25.30;68.70;;;;;;4930508;29;20431;-93
2023/06/24 07:34:30;;;;;;;9.10;7.63;;;25.30;68.00;;;;;;4917150;29;20422;-93
2023/06/24 07:36:57;;;;;;;8.73;7.93;;;25.30;68.20;;;;;;4938706;29;20436;-94
2023/06/24 07:39:23;;;;;;;8.50;7.60;;;25.30;68.30;;;;;;4897434;29;20483;-91
2023/06/24 07:41:49;;;;;;;8.63;7.87;;;25.30;68.20;;;;;;4892172;29;20514;-92
2023/06/24 07:44:15;;;;;;;8.70;7.90;;;25.30;68.60;;;;;;4921722;29;20440;-92
2023/06/24 07:46:41;;;;;;;7.70;7.00;;;25.30;68.20;;;;;;4906132;29;20471;-93
2023/06/24 07:49:06;;;;;;;7.30;6.80;;;25.40;68.50;;;;;;4890469;29;20428;-94
2023/06/24 07:51:34;;;;;;;8.47;7.30;;;25.40;68.80;;;;;;4890735;29;20436;-92
2023/06/24 07:54:01;;;;;;;7.87;7.17;;;25.40;68.00;;;;;;4890466;29;20188;-93
2023/06/24 07:56:27;;;;;;;7.20;6.60;;;25.40;68.90;;;;;;4936919;28;20485;-92
2023/06/24 07:58:53;;;;;;;8.07;7.27;;;25.40;68.10;;;;;;4960321;28;20426;-94
2023/06/24 08:01:19;;;;;;;7.70;7.00;;;25.40;68.10;;;;;;4944150;28;20450;-93
2023/06/24 08:03:45;;;;;;;7.30;6.70;;;25.40;67.60;;;;;;4945222;28;20587;-93
2023/06/24 08:06:11;;;;;;;7.63;6.97;;;25.40;67.90;;;;;;4930105;28;20505;-92
2023/06/24 08:08:37;;;;;;;7.83;7.23;;;25.40;68.40;;;;;;4930827;28;20434;-93
2023/06/24 08:11:03;;;;;;;11.10;6.97;;;25.40;67.50;;;;;;4933306;28;20508;-91
2023/06/24 08:13:29;;;;;;;7.53;6.80;;;25.40;67.30;;;;;;4938858;28;20519;-93
2023/06/24 08:15:55;;;;;;;9.80;7.70;;;25.40;67.70;;;;;;4951501;28;20442;-93
2023/06/24 08:18:21;;;;;;;9.43;8.00;;;25.40;69.10;;;;;;4935122;28;20528;-93
2023/06/24 08:20:50;;;;;;;16.60;8.50;;;25.40;68.70;;;;;;4950563;28;20496;-94
2023/06/24 08:23:16;;;;;;;11.97;8.47;;;25.50;70.00;;;;;;4949896;28;20437;-91
2023/06/24 08:25:42;;;;;;;10.53;6.77;;;25.50;71.70;;;;;;4931978;28;20763;-90
2023/06/24 08:28:08;;;;;;;11.73;7.23;;;25.50;71.90;;;;;;4932443;28;20418;-90
2023/06/24 08:30:34;;;;;;;11.67;6.90;;;25.50;71.50;;;;;;4948093;28;20218;-91
2023/06/24 08:33:00;;;;;;;13.03;7.30;;;25.50;71.80;;;;;;4980815;28;20175;-92
2023/06/24 08:35:30;;;;;;;13.43;7.40;;;25.60;70.70;;;;;;4963912;28;20430;-93
2023/06/24 08:37:56;;;;;;;13.17;7.30;;;25.60;70.20;;;;;;4931987;28;20517;-90
2023/06/24 08:40:23;;;;;;;9.63;7.10;;;25.60;70.00;;;;;;4947919;28;20457;-91
2023/06/24 08:42:49;;;;;;;7.17;6.47;;;25.70;70.30;;;;;;4923967;28;20469;-91
2023/06/24 08:45:15;;;;;;;9.83;6.67;;;25.70;69.30;;;;;;4947775;28;20981;-91
2023/06/24 08:47:43;;;;;;;12.93;6.80;;;25.70;68.90;;;;;;4932248;28;20492;-92
2023/06/24 08:50:13;;;;;;;9.83;6.83;;;25.80;69.50;;;;;;4949904;28;20412;-92
2023/06/24 08:52:43;;;;;;;6.60;6.00;;;25.80;69.20;;;;;;5002565;28;20401;-91
2023/06/24 08:55:15;;;;;;;12.33;7.27;;;25.80;69.10;;;;;;4986175;28;20460;-91
2023/06/24 08:57:41;;;;;;;12.00;6.20;;;25.80;69.00;;;;;;5002367;28;20412;-91
2023/06/24 09:00:09;;;;;;;9.50;6.77;;;25.80;68.80;;;;;;4991669;28;20494;-92
2023/06/24 09:02:37;;;;;;;7.13;6.07;;;25.90;68.70;;;;;;5016289;28;20412;-91
2023/06/24 09:05:07;;;;;;;7.30;5.80;;;25.90;68.20;;;;;;4985402;28;20440;-91
2023/06/24 09:07:36;;;;;;;7.13;6.00;;;25.90;68.00;;;;;;4985667;28;20462;-90
2023/06/24 09:10:03;;;;;;;6.53;5.90;;;25.90;67.80;;;;;;4986234;28;20486;-91
2023/06/24 09:12:32;;;;;;;6.87;6.33;;;25.90;67.80;;;;;;4970169;28;20428;-92
2023/06/24 09:14:58;;;;;;;7.20;6.37;;;25.90;67.70;;;;;;4969592;28;20502;-91
2023/06/24 09:17:24;;;;;;;7.70;5.97;;;26.00;67.80;;;;;;4985421;28;20668;-89
2023/06/24 09:19:51;;;;;;;6.40;5.80;;;26.00;67.50;;;;;;5001496;28;20516;-91
2023/06/24 09:22:19;;;;;;;6.30;5.70;;;26.00;67.40;;;;;;4984636;28;20173;-91
2023/06/24 09:24:48;;;;;;;6.80;6.10;;;26.10;67.30;;;;;;4999036;28;20409;-90
2023/06/24 09:27:16;;;;;;;6.77;6.17;;;26.10;67.10;;;;;;4949818;28;20475;-90
2023/06/24 09:29:43;;;;;;;6.47;5.77;;;26.10;66.90;;;;;;4954891;28;20428;-90
2023/06/24 09:32:14;;;;;;;6.83;6.13;;;26.10;66.90;;;;;;5001780;28;20471;-91
2023/06/24 09:34:40;;;;;;;6.20;5.70;;;26.10;66.90;;;;;;5001052;28;20452;-90
2023/06/24 09:37:06;;;;;;;6.93;6.23;;;26.20;66.90;;;;;;5001543;28;20443;-92
2023/06/24 09:39:40;;;;;;;6.60;6.00;;;26.20;66.90;;;;;;5001996;28;20413;-89
2023/06/24 09:42:08;;;;;;;6.50;6.00;;;26.20;66.80;;;;;;4985532;28;20458;-90
2023/06/24 09:44:34;;;;;;;5.93;5.43;;;26.30;66.80;;;;;;5001003;28;20463;-89
2023/06/24 09:47:00;;;;;;;8.20;6.80;;;26.30;66.70;;;;;;4984756;28;20480;-91
2023/06/24 09:49:29;;;;;;;6.73;6.10;;;26.40;66.80;;;;;;4989104;28;20492;-90
2023/06/24 09:52:00;;;;;;;8.27;6.50;;;26.40;66.40;;;;;;4949259;28;20480;-91
2023/06/24 09:54:29;;;;;;;9.60;6.00;;;26.40;66.00;;;;;;4949626;28;20433;-93
2023/06/24 09:56:59;;;;;;;6.53;5.93;;;26.40;65.80;;;;;;4949078;28;20508;-92
2023/06/24 09:59:26;;;;;;;5.90;5.50;;;26.50;65.70;;;;;;4981628;28;20766;-91
2023/06/24 10:01:54;;;;;;;6.80;6.20;;;26.50;65.60;;;;;;4965598;28;20418;-89
2023/06/24 10:04:23;;;;;;;7.50;6.90;;;26.50;65.60;;;;;;4998083;28;20452;-91
2023/06/24 10:06:50;;;;;;;7.13;6.37;;;26.60;65.50;;;;;;4981220;28;20464;-88
2023/06/24 10:09:17;;;;;;;7.00;6.40;;;26.60;65.30;;;;;;4949058;28;20806;-91
2023/06/24 10:11:45;;;;;;;6.53;5.90;;;26.60;65.00;;;;;;4981711;28;20983;-90
2023/06/24 10:14:18;;;;;;;6.77;6.27;;;26.70;64.80;;;;;;4966381;28;20413;-89
2023/06/24 10:16:44;;;;;;;6.47;5.80;;;26.70;64.70;;;;;;4965229;28;20448;-90
2023/06/24 10:19:18;;;;;;;7.07;6.47;;;26.70;64.50;;;;;;4979875;28;20434;-91
2023/06/24 10:21:53;;;;;;;6.77;6.10;;;26.70;64.20;;;;;;4945262;28;20450;-88
2023/06/24 10:24:39;;;;;;;6.33;5.73;;;26.80;64.00;;;;;;4965128;28;20417;-89
2023/06/24 10:27:08;;;;;;;7.00;6.50;;;26.90;63.50;;;;;;4945728;28;20501;-90
2023/06/24 10:29:38;;;;;;;7.80;6.27;;;26.90;63.00;;;;;;4961259;28;20517;-91
2023/06/24 10:32:08;;;;;;;6.30;5.80;;;26.90;63.00;;;;;;4961045;28;20434;-90
2023/06/24 10:34:45;;;;;;;6.53;6.03;;;26.90;62.80;;;;;;4960692;28;20414;-92
2023/06/24 10:37:11;;;;;;;6.50;5.90;;;27.00;62.50;;;;;;4945565;28;20427;-88
2023/06/24 10:39:59;;;;;;;6.77;6.17;;;27.00;62.20;;;;;;4945135;28;20544;-90
2023/06/24 10:42:31;;;;;;;6.40;5.90;;;27.00;61.80;;;;;;4961103;28;20493;-90
2023/06/24 10:45:09;;;;;;;6.80;6.27;;;27.00;61.50;;;;;;4982880;28;20446;-91
2023/06/24 10:47:49;;;;;;;7.10;6.50;;;27.10;61.60;;;;;;4983869;28;20467;-92
2023/06/24 10:50:19;;;;;;;6.97;6.13;;;27.20;61.70;;;;;;4967939;28;20474;-92
2023/06/24 10:52:55;;;;;;;6.93;6.27;;;27.20;61.50;;;;;;5000765;28;20408;-91
2023/06/24 10:55:27;;;;;;;7.53;6.83;;;27.20;61.40;;;;;;4977046;28;20473;-91
2023/06/24 10:58:14;;;;;;;6.60;5.93;;;27.20;61.50;;;;;;4978146;28;20398;-91
2023/06/24 11:00:40;;;;;;;6.43;5.83;;;27.30;61.60;;;;;;4961565;28;20410;-91
2023/06/24 11:03:24;;;;;;;7.07;6.47;;;27.40;61.50;;;;;;4958189;28;20435;-92
2023/06/24 11:05:50;;;;;;;6.73;6.23;;;27.40;61.50;;;;;;4967685;28;20508;-91
2023/06/24 11:08:16;;;;;;;6.47;5.87;;;27.40;61.50;;;;;;4983625;28;20452;-91
2023/06/24 11:10:47;;;;;;;6.83;6.23;;;27.40;61.80;;;;;;4967349;28;20192;-91
2023/06/24 11:13:13;;;;;;;6.47;5.97;;;27.50;61.10;;;;;;4983109;28;20450;-89
2023/06/24 11:15:43;;;;;;;6.87;6.27;;;27.50;61.10;;;;;;4997461;28;20501;-92
2023/06/24 11:18:10;;;;;;;8.43;6.10;;;27.60;60.90;;;;;;4991058;28;20439;-89
2023/06/24 11:20:39;;;;;;;20.83;6.73;;;27.60;59.50;;;;;;4960462;28;20501;-88
2023/06/24 11:23:09;;;;;;;14.30;6.60;;;27.60;58.80;;;;;;4976915;28;20402;-90
2023/06/24 11:25:42;;;;;;;16.20;6.20;;;27.70;58.00;;;;;;4944378;28;20483;-90
2023/06/24 11:28:31;;;;;;;16.73;7.33;;;27.80;58.20;;;;;;4929208;28;20473;-83
2023/06/24 11:31:07;;;;;;;29.73;6.97;;;27.80;58.50;;;;;;4980109;28;20449;-83
2023/06/24 11:33:35;;;;;;;28.23;7.37;;;27.90;58.60;;;;;;4995597;28;20417;-84
2023/06/24 11:36:01;;;;;;;11.20;7.00;;;27.90;58.80;;;;;;4946488;28;20843;-83
2023/06/24 11:38:31;;;;;;;19.03;7.20;;;28.00;58.70;;;;;;4991826;28;20723;-83
2023/06/24 11:41:00;;;;;;;18.20;6.80;;;28.00;58.70;;;;;;4967052;28;20419;-83
2023/06/24 11:43:26;;;;;;;13.93;7.00;;;28.00;58.80;;;;;;4981750;28;20445;-83
2023/06/24 11:45:54;;;;;;;14.93;7.37;;;28.10;59.00;;;;;;5014910;28;20440;-83
2023/06/24 11:48:20;;;;;;;11.77;6.13;;;28.10;59.00;;;;;;4981267;28;20472;-83
2023/06/24 11:50:57;;;;;;;10.50;6.13;;;28.10;58.90;;;;;;4981270;28;20183;-82
2023/06/24 11:53:31;;;;;;;11.53;6.40;;;28.10;58.80;;;;;;4978056;28;20825;-82
2023/06/24 11:55:57;;;;;;;11.67;6.47;;;28.20;58.90;;;;;;4994539;28;20441;-83
2023/06/24 11:58:27;;;;;;;12.83;6.13;;;28.20;59.00;;;;;;4978031;28;20433;-83
2023/06/24 12:00:58;;;;;;;9.77;6.83;;;28.30;58.90;;;;;;4994702;28;20477;-83
2023/06/24 12:03:28;;;;;;;9.23;6.00;;;28.30;58.90;;;;;;4977500;28;20402;-84
2023/06/24 12:05:56;;;;;;;8.30;6.07;;;28.30;58.80;;;;;;4994838;28;20429;-83
2023/06/24 12:08:25;;;;;;;8.00;6.30;;;28.30;58.80;;;;;;4994826;28;20417;-83
2023/06/24 12:10:51;;;;;;;6.07;5.57;;;28.30;58.70;;;;;;4995181;28;20417;-83
2023/06/24 12:13:20;;;;;;;8.47;5.40;;;28.40;58.60;;;;;;4980444;28;20434;-82
2023/06/24 12:15:46;;;;;;;6.30;5.50;;;28.40;58.70;;;;;;4997219;28;20475;-82
2023/06/24 12:18:12;;;;;;;7.10;5.40;;;28.50;58.80;;;;;;4951952;28;20512;-82
2023/06/24 12:20:39;;;;;;;6.47;5.97;;;28.50;58.70;;;;;;4958693;28;20496;-83
2023/06/24 12:23:07;;;;;;;6.07;5.47;;;28.50;58.60;;;;;;4958605;28;20922;-83
2023/06/24 12:25:36;;;;;;;5.77;5.27;;;28.50;58.50;;;;;;4958640;28;20445;-83
2023/06/24 12:28:04;;;;;;;7.40;5.90;;;28.60;58.50;;;;;;4986887;28;20922;-82
2023/06/24 12:30:30;;;;;;;6.37;5.70;;;28.60;58.50;;;;;;4963569;28;20504;-84
2023/06/24 12:32:56;;;;;;;6.67;6.17;;;28.60;58.40;;;;;;4952003;28;20460;-82
2023/06/24 12:35:25;;;;;;;6.47;5.87;;;28.70;58.40;;;;;;4957603;28;20253;-83
2023/06/24 12:37:53;;;;;;;6.33;5.83;;;28.70;58.40;;;;;;4987545;28;20432;-83
2023/06/24 12:40:19;;;;;;;6.57;6.07;;;28.70;58.40;;;;;;4997350;28;20421;-83
2023/06/24 12:42:45;;;;;;;6.83;6.10;;;28.80;58.20;;;;;;4997055;28;20460;-83
2023/06/24 12:45:13;;;;;;;5.90;5.40;;;28.80;58.10;;;;;;4997204;28;20927;-83
2023/06/24 12:47:39;;;;;;;6.13;5.53;;;28.90;58.00;;;;;;4964331;28;20641;-82
2023/06/24 12:50:06;;;;;;;5.90;5.40;;;28.90;57.70;;;;;;4946072;28;20456;-82
2023/06/24 12:52:35;;;;;;;5.37;4.97;;;28.90;56.80;;;;;;4958467;28;20433;-83